createdAt,value
2022-11-06T00:00:09.664Z,24.4
2022-11-06T00:01:12.137Z,24.4
2022-11-06T00:03:19.908Z,24.4
2022-11-06T00:04:22.532Z,24.5
2022-11-06T00:05:24.736Z,24.4
2022-11-06T00:06:26.940Z,24.5
2022-11-06T00:07:29.143Z,24.5
2022-11-06T00:08:31.356Z,24.5
2022-11-06T00:09:33.546Z,24.5
2022-11-06T00:10:35.742Z,24.5
2022-11-06T00:11:37.922Z,24.5
2022-11-06T00:12:40.387Z,24.5
2022-11-06T00:13:42.586Z,24.5
2022-11-06T00:14:44.807Z,24.6
2022-11-06T00:15:47.276Z,24.6
2022-11-06T00:16:49.744Z,24.6
2022-11-06T00:17:51.942Z,24.6
2022-11-06T00:18:54.500Z,24.6
2022-11-06T00:19:56.729Z,24.6
2022-11-06T00:20:59.214Z,24.6
2022-11-06T00:22:01.693Z,24.6
2022-11-06T00:23:04.163Z,24.6
2022-11-06T00:24:05.816Z,24.6
2022-11-06T00:25:08.282Z,24.6
2022-11-06T00:26:10.758Z,24.6
2022-11-06T00:27:12.940Z,24.6
2022-11-06T00:28:16.188Z,24.6
2022-11-06T00:29:18.152Z,24.6
2022-11-06T00:30:20.655Z,24.6
2022-11-06T00:31:22.865Z,24.6
2022-11-06T00:32:24.971Z,24.6
2022-11-06T00:33:27.179Z,24.6
2022-11-06T00:34:29.553Z,24.7
2022-11-06T00:35:32.184Z,24.7
2022-11-06T00:36:34.659Z,24.7
2022-11-06T00:37:36.876Z,24.7
2022-11-06T00:38:39.080Z,24.7
2022-11-06T00:39:41.284Z,24.7
2022-11-06T00:40:43.496Z,24.7
2022-11-06T00:41:45.403Z,24.7
2022-11-06T00:42:47.890Z,24.7
2022-11-06T00:43:50.066Z,24.8
2022-11-06T00:44:52.540Z,24.8
2022-11-06T00:45:54.740Z,24.8
2022-11-06T00:46:56.940Z,24.8
2022-11-06T00:47:59.135Z,24.8
2022-11-06T00:49:01.634Z,24.8
2022-11-06T00:50:03.857Z,24.9
2022-11-06T00:51:06.559Z,24.9
2022-11-06T00:52:08.750Z,24.9
2022-11-06T00:53:11.360Z,24.9
2022-11-06T00:54:13.555Z,24.9
2022-11-06T00:55:16.040Z,24.9
2022-11-06T00:56:18.503Z,24.9
2022-11-06T00:57:20.701Z,24.9
2022-11-06T00:58:22.902Z,24.9
2022-11-06T00:59:24.800Z,25
2022-11-06T01:00:26.997Z,25
2022-11-06T01:01:30.043Z,25
2022-11-06T01:02:33.446Z,25
2022-11-06T01:03:36.466Z,25
2022-11-06T01:04:38.692Z,25
2022-11-06T01:05:40.517Z,25
2022-11-06T01:06:43.091Z,25
2022-11-06T01:07:45.569Z,25
2022-11-06T01:08:48.033Z,25
2022-11-06T01:09:49.941Z,25
2022-11-06T01:10:52.141Z,25
2022-11-06T01:12:59.338Z,25
2022-11-06T01:14:01.540Z,25
2022-11-06T01:15:03.744Z,25
2022-11-06T01:16:05.968Z,25
2022-11-06T01:17:08.185Z,25
2022-11-06T01:18:11.771Z,25
2022-11-06T01:19:14.619Z,25.1
2022-11-06T01:20:17.105Z,25
2022-11-06T01:21:19.608Z,25.1
2022-11-06T01:22:21.846Z,25.1
2022-11-06T01:23:24.057Z,25.1
2022-11-06T01:24:26.252Z,25.1
2022-11-06T01:25:28.143Z,25.1
2022-11-06T01:27:35.035Z,25.1
2022-11-06T01:28:37.227Z,25.1
2022-11-06T01:29:39.429Z,25.1
2022-11-06T01:30:41.896Z,25.1
2022-11-06T01:31:44.369Z,25.1
2022-11-06T01:32:46.866Z,25.1
2022-11-06T01:33:49.066Z,25.1
2022-11-06T01:34:51.276Z,25.1
2022-11-06T01:35:53.754Z,25.1
2022-11-06T01:36:56.313Z,25.1
2022-11-06T01:37:58.823Z,25.1
2022-11-06T01:39:01.028Z,25.1
2022-11-06T01:40:03.203Z,25.1
2022-11-06T01:41:05.401Z,25.1
2022-11-06T01:42:07.876Z,25.1
2022-11-06T01:43:09.501Z,25.1
2022-11-06T01:44:11.974Z,25.1
2022-11-06T01:45:14.452Z,25.1
2022-11-06T01:46:16.943Z,25.1
2022-11-06T01:47:19.406Z,25.1
2022-11-06T01:48:21.630Z,25.1
2022-11-06T01:49:24.096Z,25.1
2022-11-06T01:50:26.580Z,25.1
2022-11-06T01:51:29.080Z,25.1
2022-11-06T01:52:31.677Z,25.1
2022-11-06T01:53:34.179Z,25.2
2022-11-06T01:54:36.380Z,25.2
2022-11-06T01:55:38.575Z,25.2
2022-11-06T01:56:40.796Z,25.2
2022-11-06T01:57:42.992Z,25.2
2022-11-06T01:58:45.474Z,25.2
2022-11-06T01:59:47.944Z,25.2
2022-11-06T02:00:50.170Z,25.2
2022-11-06T02:01:52.880Z,25.2
2022-11-06T02:02:56.344Z,25.2
2022-11-06T02:03:59.585Z,25.2
2022-11-06T02:05:01.495Z,25.2
2022-11-06T02:06:03.412Z,25.2
2022-11-06T02:07:05.615Z,25.2
2022-11-06T02:08:08.006Z,25.2
2022-11-06T02:09:10.504Z,25.2
2022-11-06T02:10:12.709Z,25.2
2022-11-06T02:11:14.918Z,25.2
2022-11-06T02:12:17.107Z,25.2
2022-11-06T02:13:19.586Z,25.2
2022-11-06T02:14:21.780Z,25.2
2022-11-06T02:15:23.984Z,25.2
2022-11-06T02:16:26.176Z,25.2
2022-11-06T02:17:28.653Z,25.2
2022-11-06T02:18:30.850Z,25.2
2022-11-06T02:19:33.344Z,25.2
2022-11-06T02:20:35.827Z,25.2
2022-11-06T02:21:38.027Z,25.2
2022-11-06T02:22:40.498Z,25.2
2022-11-06T02:23:43.145Z,25.2
2022-11-06T02:24:45.697Z,25.2
2022-11-06T02:25:48.170Z,25.2
2022-11-06T02:26:50.645Z,25.2
2022-11-06T02:27:53.112Z,25.2
2022-11-06T02:28:55.327Z,25.2
2022-11-06T02:29:57.254Z,25.2
2022-11-06T02:30:59.445Z,25.2
2022-11-06T02:32:01.636Z,25.2
2022-11-06T02:33:04.120Z,25.2
2022-11-06T02:34:06.317Z,25.2
2022-11-06T02:35:08.806Z,25.2
2022-11-06T02:36:10.724Z,25.2
2022-11-06T02:37:13.206Z,25.2
2022-11-06T02:38:16.776Z,25.2
2022-11-06T02:39:18.847Z,25.2
2022-11-06T02:40:21.341Z,25.2
2022-11-06T02:41:23.831Z,25.2
2022-11-06T02:42:26.298Z,25.2
2022-11-06T02:43:28.493Z,25.2
2022-11-06T02:44:30.971Z,25.2
2022-11-06T02:45:33.441Z,25.2
2022-11-06T02:46:35.910Z,25.2
2022-11-06T02:47:38.389Z,25.2
2022-11-06T02:48:40.583Z,25.2
2022-11-06T02:49:42.773Z,25.2
2022-11-06T02:50:44.134Z,25.2
2022-11-06T02:51:46.308Z,25.2
2022-11-06T02:52:48.784Z,25.2
2022-11-06T02:53:51.256Z,25.2
2022-11-06T02:54:53.483Z,25.2
2022-11-06T02:55:56.076Z,25.2
2022-11-06T02:56:57.988Z,25.2
2022-11-06T02:58:00.488Z,25.2
2022-11-06T02:59:02.685Z,25.2
2022-11-06T03:00:04.897Z,25.2
2022-11-06T03:01:07.367Z,25.2
2022-11-06T03:02:10.063Z,25.2
2022-11-06T03:03:13.008Z,25.2
2022-11-06T03:04:15.204Z,25.2
2022-11-06T03:05:17.098Z,25.2
2022-11-06T03:06:19.604Z,25.2
2022-11-06T03:07:21.808Z,25.2
2022-11-06T03:08:23.808Z,25.2
2022-11-06T03:09:26.292Z,25.2
2022-11-06T03:10:28.804Z,25.2
2022-11-06T03:11:31.302Z,25.2
2022-11-06T03:12:33.488Z,25.3
2022-11-06T03:13:35.383Z,25.3
2022-11-06T03:14:37.857Z,25.3
2022-11-06T03:15:39.495Z,25.3
2022-11-06T03:16:41.671Z,25.3
2022-11-06T03:17:44.140Z,25.3
2022-11-06T03:18:46.620Z,25.3
2022-11-06T03:19:49.095Z,25.3
2022-11-06T03:20:51.033Z,25.3
2022-11-06T03:21:53.272Z,25.3
2022-11-06T03:22:55.467Z,25.3
2022-11-06T03:23:57.934Z,25.3
2022-11-06T03:25:00.154Z,25.3
2022-11-06T03:26:01.838Z,25.3
2022-11-06T03:27:04.343Z,25.3
2022-11-06T03:28:06.815Z,25.3
2022-11-06T03:29:09.014Z,25.3
2022-11-06T03:31:16.548Z,25.3
2022-11-06T03:32:18.474Z,25.3
2022-11-06T03:33:20.968Z,25.3
2022-11-06T03:34:23.432Z,25.3
2022-11-06T03:35:25.357Z,25.3
2022-11-06T03:36:27.567Z,25.3
2022-11-06T03:37:30.136Z,25.3
2022-11-06T03:38:32.341Z,25.3
2022-11-06T03:39:39.287Z,25.3
2022-11-06T03:40:41.479Z,25.3
2022-11-06T03:41:43.742Z,25.3
2022-11-06T03:42:46.338Z,25.3
2022-11-06T03:43:48.537Z,25.3
2022-11-06T03:44:51.018Z,25.3
2022-11-06T03:45:52.961Z,25.3
2022-11-06T03:46:55.459Z,25.3
2022-11-06T03:47:57.383Z,25.3
2022-11-06T03:48:59.584Z,25.3
2022-11-06T03:50:01.814Z,25.3
2022-11-06T03:51:04.060Z,25.3
2022-11-06T03:52:05.985Z,25.3
2022-11-06T03:53:08.471Z,25.3
2022-11-06T03:54:10.390Z,25.3
2022-11-06T03:55:12.288Z,25.3
2022-11-06T03:56:13.952Z,25.3
2022-11-06T03:57:16.663Z,25.3
2022-11-06T03:58:19.195Z,25.3
2022-11-06T03:59:21.670Z,25.3
2022-11-06T04:00:24.141Z,25.3
2022-11-06T04:01:26.703Z,25.3
2022-11-06T04:02:29.889Z,25.3
2022-11-06T04:03:32.446Z,25.3
2022-11-06T04:04:34.924Z,25.3
2022-11-06T04:05:36.821Z,25.3
2022-11-06T04:06:39.290Z,25.2
2022-11-06T04:07:41.493Z,25.2
2022-11-06T04:08:43.692Z,25.2
2022-11-06T04:09:45.623Z,25.2
2022-11-06T04:10:47.543Z,25.1
2022-11-06T04:11:49.168Z,25.1
2022-11-06T04:12:51.698Z,25.1
2022-11-06T04:13:54.360Z,25.1
2022-11-06T04:14:56.567Z,25.1
2022-11-06T04:15:59.029Z,25.1
2022-11-06T04:17:01.226Z,25
2022-11-06T04:18:03.422Z,25
2022-11-06T04:19:06.306Z,25
2022-11-06T04:20:08.521Z,25
2022-11-06T04:21:10.180Z,25
2022-11-06T04:22:12.375Z,25
2022-11-06T04:23:14.577Z,25
2022-11-06T04:24:16.520Z,25
2022-11-06T04:25:18.992Z,25
2022-11-06T04:26:21.183Z,25
2022-11-06T04:27:23.119Z,24.9
2022-11-06T04:28:25.634Z,24.9
2022-11-06T04:29:27.583Z,24.9
2022-11-06T04:30:29.753Z,24.9
2022-11-06T04:31:31.949Z,24.9
2022-11-06T04:32:33.876Z,24.9
2022-11-06T04:33:36.080Z,24.9
2022-11-06T04:34:38.004Z,24.9
2022-11-06T04:35:40.194Z,24.9
2022-11-06T04:36:42.375Z,24.9
2022-11-06T04:37:44.333Z,24.9
2022-11-06T04:38:46.529Z,24.9
2022-11-06T04:39:49.002Z,24.9
2022-11-06T04:40:51.200Z,24.8
2022-11-06T04:41:53.673Z,24.9
2022-11-06T04:42:55.293Z,24.8
2022-11-06T04:43:57.861Z,24.8
2022-11-06T04:45:00.368Z,24.8
2022-11-06T04:46:02.561Z,24.8
2022-11-06T04:47:05.033Z,24.8
2022-11-06T04:48:07.514Z,24.8
2022-11-06T04:49:09.984Z,24.8
2022-11-06T04:50:12.474Z,24.8
2022-11-06T04:51:14.947Z,24.8
2022-11-06T04:52:17.137Z,24.8
2022-11-06T04:53:19.321Z,24.8
2022-11-06T04:54:21.775Z,24.8
2022-11-06T04:55:23.734Z,24.8
2022-11-06T04:57:32.332Z,24.8
2022-11-06T04:58:34.814Z,24.8
2022-11-06T04:59:36.869Z,24.8
2022-11-06T05:00:39.724Z,24.8
2022-11-06T05:01:42.554Z,24.8
2022-11-06T05:02:45.162Z,24.8
2022-11-06T05:03:47.065Z,24.8
2022-11-06T05:04:49.532Z,24.7
2022-11-06T05:05:51.740Z,24.7
2022-11-06T05:06:53.937Z,24.7
2022-11-06T05:07:56.410Z,24.7
2022-11-06T05:08:58.613Z,24.7
2022-11-06T05:10:00.874Z,24.7
2022-11-06T05:11:03.368Z,24.7
2022-11-06T05:12:05.837Z,24.7
2022-11-06T05:13:08.028Z,24.7
2022-11-06T05:14:10.226Z,24.7
2022-11-06T05:15:12.464Z,24.7
2022-11-06T05:16:15.083Z,24.7
2022-11-06T05:17:17.510Z,24.7
2022-11-06T05:18:19.436Z,24.7
2022-11-06T05:19:21.628Z,24.7
2022-11-06T05:20:23.839Z,24.7
2022-11-06T05:21:26.113Z,24.7
2022-11-06T05:22:28.379Z,24.7
2022-11-06T05:23:30.575Z,24.7
2022-11-06T05:24:32.769Z,24.7
2022-11-06T05:25:35.241Z,24.7
2022-11-06T05:26:37.453Z,24.7
2022-11-06T05:27:39.917Z,24.7
2022-11-06T05:28:41.855Z,24.6
2022-11-06T05:29:43.504Z,24.6
2022-11-06T05:30:46.027Z,24.6
2022-11-06T05:31:48.526Z,24.6
2022-11-06T05:32:50.995Z,24.6
2022-11-06T05:33:53.466Z,24.6
2022-11-06T05:34:55.667Z,24.6
2022-11-06T05:35:57.576Z,24.6
2022-11-06T05:36:59.489Z,24.6
2022-11-06T05:38:01.386Z,24.6
2022-11-06T05:39:03.587Z,24.6
2022-11-06T05:40:05.488Z,24.6
2022-11-06T05:41:07.687Z,24.6
2022-11-06T05:42:10.141Z,24.6
2022-11-06T05:43:12.614Z,24.6
2022-11-06T05:44:15.078Z,24.6
2022-11-06T05:45:17.557Z,24.6
2022-11-06T05:47:25.152Z,24.6
2022-11-06T05:48:27.676Z,24.6
2022-11-06T05:49:30.158Z,24.6
2022-11-06T05:50:32.346Z,24.6
2022-11-06T05:51:34.819Z,24.6
2022-11-06T05:52:37.022Z,24.6
2022-11-06T05:53:39.209Z,24.6
2022-11-06T05:54:41.408Z,24.6
2022-11-06T05:55:43.873Z,24.6
2022-11-06T05:56:46.342Z,24.6
2022-11-06T05:57:48.833Z,24.6
2022-11-06T05:58:51.307Z,24.6
2022-11-06T05:59:53.227Z,24.6
2022-11-06T06:00:55.139Z,24.6
2022-11-06T06:01:57.278Z,24.6
2022-11-06T06:03:00.016Z,24.6
2022-11-06T06:04:02.849Z,24.6
2022-11-06T06:05:05.311Z,24.6
2022-11-06T06:06:07.511Z,24.6
2022-11-06T06:07:09.704Z,24.6
2022-11-06T06:08:13.398Z,24.6
2022-11-06T06:09:16.964Z,24.6
2022-11-06T06:10:19.159Z,24.6
2022-11-06T06:11:21.628Z,24.6
2022-11-06T06:12:24.107Z,24.6
2022-11-06T06:13:26.427Z,24.6
2022-11-06T06:14:28.355Z,24.6
2022-11-06T06:15:30.546Z,24.6
2022-11-06T06:16:32.759Z,24.6
2022-11-06T06:17:35.254Z,24.6
2022-11-06T06:18:37.850Z,24.6
2022-11-06T06:19:40.169Z,24.6
2022-11-06T06:20:42.373Z,24.6
2022-11-06T06:21:44.563Z,24.6
2022-11-06T06:22:46.781Z,24.6
2022-11-06T06:23:48.982Z,24.6
2022-11-06T06:24:51.668Z,24.6
2022-11-06T06:25:53.795Z,24.6
2022-11-06T06:26:55.978Z,24.6
2022-11-06T06:27:58.173Z,24.6
2022-11-06T06:29:00.706Z,24.6
2022-11-06T06:30:02.893Z,24.6
2022-11-06T06:31:05.391Z,24.6
2022-11-06T06:32:07.860Z,24.6
2022-11-06T06:33:10.335Z,24.6
2022-11-06T06:34:12.583Z,24.6
2022-11-06T06:35:15.253Z,24.6
2022-11-06T06:36:17.449Z,24.6
2022-11-06T06:37:21.261Z,24.6
2022-11-06T06:38:22.614Z,24.6
2022-11-06T06:39:23.967Z,24.6
2022-11-06T06:40:25.891Z,24.6
2022-11-06T06:41:27.811Z,24.6
2022-11-06T06:43:34.981Z,24.6
2022-11-06T06:44:36.933Z,24.5
2022-11-06T06:45:39.115Z,24.6
2022-11-06T06:46:40.807Z,24.6
2022-11-06T06:47:43.279Z,24.5
2022-11-06T06:48:45.741Z,24.5
2022-11-06T06:49:47.821Z,24.5
2022-11-06T06:50:49.944Z,24.6
2022-11-06T06:51:51.886Z,24.6
2022-11-06T06:52:54.077Z,24.6
2022-11-06T06:53:56.551Z,24.6
2022-11-06T06:54:59.028Z,24.5
2022-11-06T06:56:01.599Z,24.5
2022-11-06T06:57:04.064Z,24.6
2022-11-06T06:58:05.983Z,24.5
2022-11-06T06:59:08.192Z,24.5
2022-11-06T07:00:10.717Z,24.5
2022-11-06T07:01:13.532Z,24.5
2022-11-06T07:02:16.654Z,24.6
2022-11-06T07:03:18.488Z,24.5
2022-11-06T07:04:20.970Z,24.5
2022-11-06T07:05:22.915Z,24.5
2022-11-06T07:06:25.422Z,24.5
2022-11-06T07:07:27.894Z,24.5
2022-11-06T07:08:29.531Z,24.5
2022-11-06T07:09:31.453Z,24.5
2022-11-06T07:10:33.670Z,24.5
2022-11-06T07:11:35.580Z,24.5
2022-11-06T07:12:37.487Z,24.5
2022-11-06T07:13:39.688Z,24.5
2022-11-06T07:14:41.886Z,24.5
2022-11-06T07:15:44.397Z,24.5
2022-11-06T07:17:51.042Z,24.5
2022-11-06T07:18:53.231Z,24.5
2022-11-06T07:19:54.880Z,24.5
2022-11-06T07:20:57.416Z,24.5
2022-11-06T07:21:59.655Z,24.5
2022-11-06T07:23:01.567Z,24.5
2022-11-06T07:24:03.772Z,24.5
2022-11-06T07:25:05.975Z,24.5
2022-11-06T07:26:08.169Z,24.5
2022-11-06T07:27:10.360Z,24.5
2022-11-06T07:28:12.265Z,24.5
2022-11-06T07:29:14.194Z,24.5
2022-11-06T07:30:16.139Z,24.5
2022-11-06T07:31:18.403Z,24.5
2022-11-06T07:32:20.605Z,24.5
2022-11-06T07:33:23.078Z,24.5
2022-11-06T07:34:24.989Z,24.5
2022-11-06T07:35:27.459Z,24.5
2022-11-06T07:36:29.701Z,24.5
2022-11-06T07:37:32.072Z,24.5
2022-11-06T07:38:34.591Z,24.5
2022-11-06T07:39:36.779Z,24.5
2022-11-06T07:40:38.702Z,24.5
2022-11-06T07:41:41.178Z,24.5
2022-11-06T07:42:44.821Z,24.5
2022-11-06T07:43:46.740Z,24.5
2022-11-06T07:44:48.938Z,24.5
2022-11-06T07:45:51.404Z,24.5
2022-11-06T07:46:53.962Z,24.5
2022-11-06T07:49:01.146Z,24.5
2022-11-06T07:50:03.332Z,24.5
2022-11-06T07:51:05.824Z,24.5
2022-11-06T07:52:08.159Z,24.5
2022-11-06T07:53:11.534Z,24.5
2022-11-06T07:54:15.241Z,24.5
2022-11-06T07:55:17.417Z,24.5
2022-11-06T07:56:19.319Z,24.5
2022-11-06T07:57:21.512Z,24.5
2022-11-06T07:58:23.423Z,24.5
2022-11-06T07:59:25.747Z,24.5
2022-11-06T08:00:28.548Z,24.5
2022-11-06T08:01:31.187Z,24.5
2022-11-06T08:02:34.461Z,24.5
2022-11-06T08:03:37.225Z,24.5
2022-11-06T08:04:39.696Z,24.5
2022-11-06T08:05:41.615Z,24.5
2022-11-06T08:06:43.516Z,24.5
2022-11-06T08:07:46.032Z,24.5
2022-11-06T08:08:48.365Z,24.5
2022-11-06T08:09:50.534Z,24.5
2022-11-06T08:10:52.761Z,24.5
2022-11-06T08:11:54.117Z,24.5
2022-11-06T08:12:56.618Z,24.5
2022-11-06T08:13:58.844Z,24.5
2022-11-06T08:15:01.325Z,24.5
2022-11-06T08:16:03.529Z,24.5
2022-11-06T08:17:06.016Z,24.5
2022-11-06T08:18:07.981Z,24.5
2022-11-06T08:19:10.180Z,24.5
2022-11-06T08:20:12.385Z,24.5
2022-11-06T08:21:14.596Z,24.5
2022-11-06T08:22:17.108Z,24.5
2022-11-06T08:23:19.376Z,24.5
2022-11-06T08:24:23.321Z,24.5
2022-11-06T08:25:25.840Z,24.5
2022-11-06T08:26:28.318Z,24.5
2022-11-06T08:27:30.244Z,24.5
2022-11-06T08:28:32.459Z,24.5
2022-11-06T08:30:39.936Z,24.5
2022-11-06T08:31:42.136Z,24.5
2022-11-06T08:32:44.322Z,24.5
2022-11-06T08:33:46.831Z,24.5
2022-11-06T08:34:49.034Z,24.5
2022-11-06T08:35:50.950Z,24.5
2022-11-06T08:36:53.437Z,24.5
2022-11-06T08:37:55.337Z,24.5
2022-11-06T08:38:57.424Z,24.5
2022-11-06T08:39:59.954Z,24.5
2022-11-06T08:41:02.188Z,24.5
2022-11-06T08:42:04.664Z,24.5
2022-11-06T08:43:07.160Z,24.5
2022-11-06T08:44:09.080Z,24.5
2022-11-06T08:45:11.275Z,24.5
2022-11-06T08:46:12.904Z,24.5
2022-11-06T08:47:15.448Z,24.5
2022-11-06T08:48:18.192Z,24.5
2022-11-06T08:49:20.406Z,24.5
2022-11-06T08:50:22.602Z,24.5
2022-11-06T08:51:24.801Z,24.5
2022-11-06T08:53:32.211Z,24.5
2022-11-06T08:54:34.968Z,24.5
2022-11-06T08:55:37.490Z,24.5
2022-11-06T08:56:39.665Z,24.5
2022-11-06T08:57:42.147Z,24.5
2022-11-06T08:58:44.354Z,24.5
2022-11-06T08:59:46.844Z,24.5
2022-11-06T09:00:49.231Z,24.5
2022-11-06T09:01:52.544Z,24.5
2022-11-06T09:02:54.876Z,24.5
2022-11-06T09:03:57.122Z,24.5
2022-11-06T09:04:59.619Z,24.5
2022-11-06T09:06:01.583Z,24.5
2022-11-06T09:07:04.061Z,24.5
2022-11-06T09:08:06.574Z,24.5
2022-11-06T09:09:09.055Z,24.5
2022-11-06T09:10:11.589Z,24.5
2022-11-06T09:11:14.104Z,24.5
2022-11-06T09:12:16.293Z,24.5
2022-11-06T09:13:18.484Z,24.5
2022-11-06T09:14:20.702Z,24.5
2022-11-06T09:15:22.625Z,24.5
2022-11-06T09:16:25.095Z,24.5
2022-11-06T09:17:27.006Z,24.5
2022-11-06T09:18:29.495Z,24.5
2022-11-06T09:19:31.964Z,24.5
2022-11-06T09:20:33.902Z,24.5
2022-11-06T09:21:35.843Z,24.5
2022-11-06T09:22:37.765Z,24.4
2022-11-06T09:23:39.419Z,24.5
2022-11-06T09:25:46.924Z,24.5
2022-11-06T09:26:49.421Z,24.5
2022-11-06T09:28:56.890Z,24.5
2022-11-06T09:29:59.361Z,24.5
2022-11-06T09:31:01.285Z,24.5
2022-11-06T09:32:03.186Z,24.5
2022-11-06T09:34:10.384Z,24.5
2022-11-06T09:35:12.573Z,24.5
2022-11-06T09:36:14.803Z,24.5
2022-11-06T09:37:16.982Z,24.5
2022-11-06T09:38:19.188Z,24.4
2022-11-06T09:39:21.412Z,24.5
2022-11-06T09:40:23.606Z,24.5
2022-11-06T09:41:25.590Z,24.4
2022-11-06T09:42:28.089Z,24.4
2022-11-06T09:44:35.546Z,24.5
2022-11-06T09:45:38.019Z,24.4
2022-11-06T09:46:40.225Z,24.5
2022-11-06T09:47:42.712Z,24.4
2022-11-06T09:48:45.179Z,24.4
2022-11-06T09:49:47.376Z,24.4
2022-11-06T09:50:49.288Z,24.4
2022-11-06T09:51:51.747Z,24.4
2022-11-06T09:52:55.457Z,24.4
2022-11-06T09:54:02.398Z,24.4
2022-11-06T09:55:06.243Z,24.4
2022-11-06T09:56:08.924Z,24.4
2022-11-06T09:57:11.424Z,24.4
2022-11-06T09:58:15.144Z,24.4
2022-11-06T09:59:18.204Z,24.4
2022-11-06T10:00:20.422Z,24.4
2022-11-06T10:02:28.313Z,24.4
2022-11-06T10:03:30.336Z,24.4
2022-11-06T10:04:32.814Z,24.4
2022-11-06T10:05:35.012Z,24.4
2022-11-06T10:06:37.487Z,24.4
2022-11-06T10:07:39.988Z,24.4
2022-11-06T10:08:42.199Z,24.4
2022-11-06T10:09:44.393Z,24.4
2022-11-06T10:10:46.588Z,24.4
2022-11-06T10:11:49.082Z,24.4
2022-11-06T10:12:51.616Z,24.4
2022-11-06T10:13:54.139Z,24.4
2022-11-06T10:14:56.358Z,24.4
2022-11-06T10:15:58.832Z,24.4
2022-11-06T10:17:01.034Z,24.4
2022-11-06T10:18:03.225Z,24.4
2022-11-06T10:19:05.421Z,24.4
2022-11-06T10:20:07.647Z,24.4
2022-11-06T10:21:09.287Z,24.4
2022-11-06T10:22:11.772Z,24.4
2022-11-06T10:23:14.099Z,24.4
2022-11-06T10:24:16.581Z,24.4
2022-11-06T10:25:18.785Z,24.4
2022-11-06T10:26:20.689Z,24.4
2022-11-06T10:27:22.884Z,24.4
2022-11-06T10:28:24.853Z,24.4
2022-11-06T10:29:27.372Z,24.4
2022-11-06T10:30:29.854Z,24.4
2022-11-06T10:31:32.376Z,24.4
2022-11-06T10:32:34.850Z,24.4
2022-11-06T10:33:36.784Z,24.4
2022-11-06T10:34:38.698Z,24.4
2022-11-06T10:35:40.905Z,24.4
2022-11-06T10:37:48.393Z,24.4
2022-11-06T10:38:50.453Z,24.4
2022-11-06T10:39:52.654Z,24.4
2022-11-06T10:40:54.848Z,24.4
2022-11-06T10:41:57.045Z,24.4
2022-11-06T10:42:59.270Z,24.4
2022-11-06T10:44:01.233Z,24.4
2022-11-06T10:45:03.864Z,24.4
2022-11-06T10:46:06.365Z,24.4
2022-11-06T10:47:08.833Z,24.4
2022-11-06T10:48:12.359Z,24.4
2022-11-06T10:49:15.804Z,24.4
2022-11-06T10:50:18.003Z,24.4
2022-11-06T10:51:20.498Z,24.4
2022-11-06T10:52:22.700Z,24.4
2022-11-06T10:53:24.923Z,24.4
2022-11-06T10:54:27.430Z,24.4
2022-11-06T10:55:29.893Z,24.4
2022-11-06T10:56:32.368Z,24.4
2022-11-06T10:57:34.847Z,24.4
2022-11-06T10:58:36.778Z,24.4
2022-11-06T10:59:39.304Z,24.4
2022-11-06T11:00:41.759Z,24.4
2022-11-06T11:01:44.319Z,24.4
2022-11-06T11:02:46.645Z,24.4
2022-11-06T11:03:49.115Z,24.4
2022-11-06T11:05:56.588Z,24.4
2022-11-06T11:06:59.078Z,24.4
2022-11-06T11:08:01.638Z,24.4
2022-11-06T11:09:04.111Z,24.4
2022-11-06T11:10:06.606Z,24.4
2022-11-06T11:11:09.070Z,24.4
2022-11-06T11:12:11.543Z,24.4
2022-11-06T11:13:14.025Z,24.4
2022-11-06T11:14:16.218Z,24.4
2022-11-06T11:15:18.457Z,24.4
2022-11-06T11:16:21.069Z,24.4
2022-11-06T11:17:23.072Z,24.4
2022-11-06T11:18:24.999Z,24.4
2022-11-06T11:19:27.363Z,24.4
2022-11-06T11:20:29.589Z,24.4
2022-11-06T11:21:31.249Z,24.4
2022-11-06T11:22:34.186Z,24.4
2022-11-06T11:23:36.661Z,24.4
2022-11-06T11:24:39.133Z,24.4
2022-11-06T11:25:41.618Z,24.4
2022-11-06T11:26:44.113Z,24.4
2022-11-06T11:27:46.324Z,24.4
2022-11-06T11:28:48.797Z,24.4
2022-11-06T11:29:51.260Z,24.4
2022-11-06T11:30:53.720Z,24.4
2022-11-06T11:31:55.948Z,24.4
2022-11-06T11:32:58.423Z,24.4
2022-11-06T11:34:00.891Z,24.4
2022-11-06T11:35:03.367Z,24.4
2022-11-06T11:36:05.693Z,24.4
2022-11-06T11:37:08.261Z,24.4
2022-11-06T11:38:10.830Z,24.4
2022-11-06T11:39:14.139Z,24.4
2022-11-06T11:40:16.604Z,24.4
2022-11-06T11:41:19.224Z,24.4
2022-11-06T11:42:21.705Z,24.4
2022-11-06T11:43:23.899Z,24.4
2022-11-06T11:44:26.398Z,24.4
2022-11-06T11:45:28.599Z,24.4
2022-11-06T11:46:31.182Z,24.4
2022-11-06T11:47:33.767Z,24.4
2022-11-06T11:48:35.990Z,24.4
2022-11-06T11:49:38.468Z,24.4
2022-11-06T11:50:40.652Z,24.4
2022-11-06T11:51:42.573Z,24.4
2022-11-06T11:52:44.772Z,24.4
2022-11-06T11:53:47.359Z,24.4
2022-11-06T11:54:49.532Z,24.4
2022-11-06T11:55:52.005Z,24.4
2022-11-06T11:57:58.903Z,24.4
2022-11-06T11:59:01.400Z,24.4
2022-11-06T12:00:03.894Z,24.4
2022-11-06T12:01:06.750Z,24.4
2022-11-06T12:02:09.928Z,24.4
2022-11-06T12:03:13.671Z,24.4
2022-11-06T12:04:16.413Z,24.4
2022-11-06T12:05:18.887Z,24.4
2022-11-06T12:06:21.481Z,24.4
2022-11-06T12:07:23.687Z,24.4
2022-11-06T12:08:25.889Z,24.4
2022-11-06T12:09:28.081Z,24.4
2022-11-06T12:10:30.289Z,24.4
2022-11-06T12:11:32.223Z,24.4
2022-11-06T12:12:34.452Z,24.4
2022-11-06T12:13:36.658Z,24.4
2022-11-06T12:14:38.567Z,24.4
2022-11-06T12:15:40.461Z,24.4
2022-11-06T12:16:42.376Z,24.4
2022-11-06T12:17:44.636Z,24.4
2022-11-06T12:18:46.985Z,24.4
2022-11-06T12:19:49.459Z,24.4
2022-11-06T12:20:51.675Z,24.4
2022-11-06T12:21:53.601Z,24.4
2022-11-06T12:22:55.796Z,24.4
2022-11-06T12:23:57.695Z,24.4
2022-11-06T12:24:59.885Z,24.4
2022-11-06T12:26:02.360Z,24.4
2022-11-06T12:27:04.295Z,24.4
2022-11-06T12:28:06.231Z,24.4
2022-11-06T12:29:08.157Z,24.4
2022-11-06T12:30:10.081Z,24.4
2022-11-06T12:31:12.295Z,24.4
2022-11-06T12:32:14.761Z,24.4
2022-11-06T12:33:17.381Z,24.4
2022-11-06T12:34:19.904Z,24.4
2022-11-06T12:35:22.136Z,24.4
2022-11-06T12:36:24.614Z,24.4
2022-11-06T12:37:26.832Z,24.4
2022-11-06T12:38:29.033Z,24.4
2022-11-06T12:39:31.238Z,24.4
2022-11-06T12:40:33.714Z,24.4
2022-11-06T12:41:35.912Z,24.4
2022-11-06T12:42:38.380Z,24.4
2022-11-06T12:43:40.611Z,24.4
2022-11-06T12:44:42.797Z,24.4
2022-11-06T12:45:44.719Z,24.4
2022-11-06T12:46:47.208Z,24.4
2022-11-06T12:47:49.401Z,24.4
2022-11-06T12:48:52.023Z,24.4
2022-11-06T12:49:54.657Z,24.4
2022-11-06T12:50:56.867Z,24.4
2022-11-06T12:51:59.063Z,24.4
2022-11-06T12:54:06.540Z,24.4
2022-11-06T12:55:08.432Z,24.4
2022-11-06T12:56:10.907Z,24.4
2022-11-06T12:57:13.084Z,24.4
2022-11-06T12:58:16.605Z,24.4
2022-11-06T12:59:19.415Z,24.4
2022-11-06T13:00:21.403Z,24.4
2022-11-06T13:01:30.112Z,24.4
2022-11-06T13:02:33.467Z,24.4
2022-11-06T13:03:36.348Z,24.4
2022-11-06T13:04:38.597Z,24.4
2022-11-06T13:05:40.822Z,24.4
2022-11-06T13:06:43.288Z,24.4
2022-11-06T13:07:45.501Z,24.4
2022-11-06T13:08:47.984Z,24.4
2022-11-06T13:09:50.181Z,24.4
2022-11-06T13:10:52.674Z,24.4
2022-11-06T13:11:54.605Z,24.4
2022-11-06T13:12:56.545Z,24.4
2022-11-06T13:13:58.747Z,24.4
2022-11-06T13:15:00.964Z,24.4
2022-11-06T13:16:03.460Z,24.4
2022-11-06T13:17:05.951Z,24.4
2022-11-06T13:18:08.429Z,24.4
2022-11-06T13:19:10.613Z,24.4
2022-11-06T13:20:13.223Z,24.4
2022-11-06T13:21:15.600Z,24.4
2022-11-06T13:22:17.816Z,24.4
2022-11-06T13:23:20.042Z,24.4
2022-11-06T13:24:22.223Z,24.4
2022-11-06T13:25:24.428Z,24.4
2022-11-06T13:26:26.915Z,24.4
2022-11-06T13:27:28.834Z,24.4
2022-11-06T13:28:30.749Z,24.4
2022-11-06T13:29:32.947Z,24.4
2022-11-06T13:30:35.148Z,24.4
2022-11-06T13:31:37.094Z,24.4
2022-11-06T13:32:39.584Z,24.4
2022-11-06T13:33:41.816Z,24.4
2022-11-06T13:34:44.312Z,24.4
2022-11-06T13:35:46.834Z,24.4
2022-11-06T13:36:49.424Z,24.4
2022-11-06T13:37:51.081Z,24.4
2022-11-06T13:38:53.335Z,24.4
2022-11-06T13:39:55.530Z,24.4
2022-11-06T13:42:02.700Z,24.4
2022-11-06T13:43:05.175Z,24.4
2022-11-06T13:44:07.693Z,24.4
2022-11-06T13:45:09.898Z,24.4
2022-11-06T13:46:12.421Z,24.4
2022-11-06T13:47:14.591Z,24.4
2022-11-06T13:48:17.462Z,24.4
2022-11-06T13:49:19.948Z,24.4
2022-11-06T13:50:22.415Z,24.4
2022-11-06T13:51:25.015Z,24.4
2022-11-06T13:52:27.549Z,24.4
2022-11-06T13:53:30.048Z,24.4
2022-11-06T13:54:31.975Z,24.4
2022-11-06T13:55:34.429Z,24.4
2022-11-06T13:56:37.140Z,24.4
2022-11-06T13:57:39.624Z,24.4
2022-11-06T13:58:42.092Z,24.4
2022-11-06T13:59:44.585Z,24.4
2022-11-06T14:00:47.083Z,24.4
2022-11-06T14:01:49.714Z,24.4
2022-11-06T14:02:52.193Z,24.4
2022-11-06T14:03:54.393Z,24.4
2022-11-06T14:04:56.912Z,24.4
2022-11-06T14:05:58.847Z,24.3
2022-11-06T14:07:01.240Z,24.3
2022-11-06T14:08:03.785Z,24.3
2022-11-06T14:09:05.719Z,24.4
2022-11-06T14:10:07.922Z,24.4
2022-11-06T14:11:10.391Z,24.4
2022-11-06T14:13:17.283Z,24.4
2022-11-06T14:14:19.763Z,24.4
2022-11-06T14:15:21.979Z,24.4